Speedwell, Virginia
Current Conditions -  °F | °C
As of 3:55 PM on Saturday 25 Oct 2014 (Local Time) from KMKJ Reporting Station
Scattered Clouds Scattered Clouds  
Wind Chill: 65°   Ceiling: Unl
Heat Index: 65°   Visibility: 10mi
Dew Point: 46°   Wind: 12mph
Humidity: 49%   Direction: 230°SW
Pressure: 30.02"   Gusts: 16mph
Location:  36.81°N, 81.17°W
Report Text: KMKJ 251955Z AUTO 23010G14KT 10SM SCT055 18/08 A3002 RMK AO2 T01840075
Loading
Personal Weather Stations






























Interactive Weather Map
Tropical Storm Tracking
New forecast layout! Learn more

10-Day Weather Forecast

Advertisements
Track Severe Weather on mobile